createdAt,value
2022-12-01T00:08:20.805Z,6.05
2022-12-01T00:38:38.337Z,6.05
2022-12-01T01:08:56.571Z,6.05
2022-12-01T01:39:14.409Z,5.05
2022-12-01T02:09:32.256Z,4.75
2022-12-01T02:39:50.375Z,4.8
2022-12-01T03:10:08.531Z,4.75
2022-12-01T03:40:26.420Z,4.75
2022-12-01T04:10:44.304Z,4.7
2022-12-01T04:41:01.666Z,4.6
2022-12-01T05:11:26.318Z,4.55
2022-12-01T05:41:44.292Z,4.2
2022-12-01T06:12:01.567Z,4.15
2022-12-01T06:42:22.206Z,4.05
2022-12-01T07:12:40.777Z,4.05
2022-12-01T07:42:59.389Z,4.15
2022-12-01T08:13:17.716Z,4.25
2022-12-01T08:43:57.802Z,4.05
2022-12-01T09:13:57.524Z,4
2022-12-01T09:44:16.592Z,4.25
2022-12-01T10:14:36.316Z,4.6
2022-12-01T10:44:55.034Z,4.85
2022-12-01T11:15:13.144Z,4.8
2022-12-01T11:45:32.443Z,5.2
2022-12-01T12:15:50.766Z,5.05
2022-12-01T12:46:07.784Z,5.25
2022-12-01T13:16:30.452Z,5.6
2022-12-01T13:46:49.844Z,5.8
2022-12-01T14:17:07.271Z,5.85
2022-12-01T14:47:25.691Z,6
2022-12-01T15:17:43.961Z,5.55
2022-12-01T15:48:01.500Z,5.25
2022-12-01T16:18:19.945Z,5
2022-12-01T16:48:36.858Z,4.9
2022-12-01T17:18:53.283Z,4.5
2022-12-01T17:49:11.513Z,4.1
2022-12-01T18:19:28.591Z,3.8
2022-12-01T18:49:46.401Z,3.8
2022-12-01T19:20:04.624Z,3.8
2022-12-01T19:50:24.122Z,3.95
2022-12-01T20:20:42.041Z,3.95
2022-12-01T20:51:01.164Z,3.95
2022-12-01T21:21:21.003Z,3.9
2022-12-01T21:51:38.892Z,4.05
2022-12-01T22:21:57.404Z,3.95
2022-12-01T22:52:15.270Z,3.95
2022-12-01T23:22:33.282Z,3.9
2022-12-01T23:52:50.930Z,3.8
